KMTN/MTN METAR and TAF weather

Enter ICAO airport designator
Station Type Date Time Source
KMTN METAR 2019/04/18 20:54 UTC NOAA

KMTN 182054Z 13005KT 10SM SCT160 23/17 A2988


Station Type Date Time Source
KMTN Decoded METAR 2019/04/18 20:54 UTC NOAA

Baltimore / Martin, MD, United States (KMTN) 39-20N 076-25W
Apr 18, 2019 - 04:54 PM EDT / 2019.04.18 2054 UTC
Wind: from the SE (130 degrees) at 6 MPH (5 KT):0
Visibility: 10 mile(s):0
Sky conditions: partly cloudy
Temperature: 73 F (23 C)
Dew Point: 62 F (17 C)
Relative Humidity: 68%
Pressure (altimeter): 29.88 in. Hg (1011 hPa)
ob: KMTN 182054Z 13005KT 10SM SCT160 23/17 A2988
cycle: 21

Station Type Date Time Source
KMTN TAF 2019/04/18 18:22 UTC NOAA

TAF KMTN 181720Z 1818/1918 15008KT P6SM FEW040 SCT200
FM190000 16011G22KT P6SM FEW200 SCT250
FM190400 17012G23KT P6SM FEW050 SCT250
FM190900 17011G22KT P6SM SCT025 BKN035
FM191200 17012G23KT P6SM SCT025 OVC030
FM191400 17012G23KT P6SM SCT025 OVC035
FM191600 16013G25KT P6SM BKN010 OVC025

Example: see airport list